Time;durP1;ratioP1;P1;durP2;ratioP2;P2;SDS_P1;SDS_P2;PMS_P1;PMS_P2;Temp;Humidity;BMP_temperature;BMP_pressure;BME280_temperature;BME280_humidity;BME280_pressure;Samples;Min_cycle;Max_cycle;Signal;HPM_P1;HPM_P2
2022/03/12 00:03:43;;;;;;;12.90;5.90;;;23.30;42.40;;;;;;219682;1273;22601;-55
2022/03/12 00:08:53;;;;;;;14.70;6.40;;;23.20;42.80;;;;;;219483;1273;24272;-54
2022/03/12 00:13:57;;;;;;;12.40;5.90;;;23.10;43.50;;;;;;219513;1273;22619;-54
2022/03/12 00:19:10;;;;;;;12.20;6.20;;;23.00;43.00;;;;;;219643;1273;23905;-54
2022/03/12 00:24:18;;;;;;;10.60;6.30;;;22.90;43.30;;;;;;219741;1273;24320;-52
2022/03/12 00:29:23;;;;;;;12.10;6.20;;;22.70;43.00;;;;;;219153;1274;24475;-54
2022/03/12 00:34:27;;;;;;;10.80;5.80;;;22.60;43.00;;;;;;219567;1273;24395;-51
2022/03/12 00:39:34;;;;;;;10.20;5.90;;;22.60;43.00;;;;;;219473;1273;25430;-55
2022/03/12 00:44:38;;;;;;;9.60;5.90;;;22.50;42.80;;;;;;219873;1273;23463;-52
2022/03/12 00:49:44;;;;;;;10.40;5.80;;;22.40;43.10;;;;;;219649;1273;22555;-56
2022/03/12 00:54:52;;;;;;;;;;;22.40;43.10;;;;;;219587;1273;25525;-54
2022/03/12 00:59:56;;;;;;;8.70;5.00;;;22.40;42.80;;;;;;219661;1273;22553;-56
2022/03/12 01:05:05;;;;;;;8.90;5.70;;;22.80;42.70;;;;;;219532;1273;22547;-56
2022/03/12 01:10:13;;;;;;;10.30;6.10;;;23.30;41.60;;;;;;219766;1273;24302;-56
2022/03/12 01:15:25;;;;;;;8.80;5.30;;;23.60;40.90;;;;;;219686;1273;25323;-53
2022/03/12 01:20:30;;;;;;;8.90;5.40;;;23.80;40.80;;;;;;219627;1273;22697;-55
2022/03/12 01:25:33;;;;;;;9.10;5.60;;;23.90;40.10;;;;;;219380;1273;22766;-52
2022/03/12 01:30:41;;;;;;;9.10;5.70;;;24.10;39.80;;;;;;219876;1273;24416;-55
2022/03/12 01:35:44;;;;;;;9.00;5.80;;;24.10;39.90;;;;;;219791;1273;22702;-56
2022/03/12 01:40:48;;;;;;;9.60;5.80;;;24.20;39.90;;;;;;219455;1273;24246;-55
2022/03/12 01:45:52;;;;;;;8.90;5.10;;;24.20;39.90;;;;;;219734;1273;24370;-55
2022/03/12 01:50:57;;;;;;;8.40;5.30;;;24.30;39.10;;;;;;219883;1273;26639;-55
2022/03/12 01:56:09;;;;;;;15.10;6.30;;;24.40;39.00;;;;;;219675;1273;22560;-55
2022/03/12 02:01:20;;;;;;;8.20;5.20;;;24.40;39.00;;;;;;219841;1273;22551;-55
2022/03/12 02:06:27;;;;;;;10.50;5.60;;;24.40;38.80;;;;;;219923;1273;22782;-54
2022/03/12 02:11:32;;;;;;;9.90;5.90;;;24.40;38.80;;;;;;219543;1273;22553;-55
2022/03/12 02:16:37;;;;;;;9.20;5.60;;;24.50;38.60;;;;;;219456;1273;22540;-56
2022/03/12 02:21:57;;;;;;;10.20;5.80;;;24.50;38.70;;;;;;219464;1275;22560;-55
2022/03/12 02:27:10;;;;;;;10.80;5.90;;;24.50;38.80;;;;;;219397;1273;22578;-56
2022/03/12 02:32:16;;;;;;;8.50;4.90;;;24.50;38.70;;;;;;219490;1273;25537;-55
2022/03/12 02:37:33;;;;;;;10.20;6.60;;;24.50;38.30;;;;;;219416;1273;22562;-55
2022/03/12 02:42:38;;;;;;;10.00;5.50;;;24.50;38.70;;;;;;219500;1274;24448;-53
2022/03/12 02:47:48;;;;;;;7.60;4.60;;;24.60;38.50;;;;;;219574;1273;26515;-52
2022/03/12 02:52:51;;;;;;;9.80;5.50;;;24.70;38.40;;;;;;219504;1273;22558;-54
2022/03/12 02:57:55;;;;;;;9.60;5.50;;;24.60;38.30;;;;;;219683;1273;25375;-55
2022/03/12 03:03:01;;;;;;;9.50;6.10;;;24.50;38.80;;;;;;219656;1273;24327;-53
2022/03/12 03:08:21;;;;;;;11.70;6.40;;;24.30;38.90;;;;;;219551;1273;22545;-54
2022/03/12 03:13:28;;;;;;;10.40;6.20;;;24.10;38.90;;;;;;219679;1273;26044;-54
2022/03/12 03:18:50;;;;;;;8.40;5.10;;;23.90;39.10;;;;;;219769;1273;25475;-56
2022/03/12 03:23:55;;;;;;;9.70;6.60;;;23.80;39.50;;;;;;219735;1273;25779;-55
2022/03/12 03:29:00;;;;;;;9.70;6.10;;;23.60;39.90;;;;;;219413;1273;22563;-54
2022/03/12 03:34:12;;;;;;;7.90;5.80;;;23.40;40.10;;;;;;219507;1273;25383;-53
2022/03/12 03:39:17;;;;;;;8.80;5.40;;;23.30;40.50;;;;;;219558;1273;24579;-52
2022/03/12 03:44:29;;;;;;;10.40;6.20;;;23.10;40.70;;;;;;219488;1273;22632;-56
2022/03/12 03:49:32;;;;;;;10.10;6.00;;;23.00;40.90;;;;;;219437;1273;25518;-54
2022/03/12 03:54:38;;;;;;;7.50;5.20;;;23.00;41.00;;;;;;219572;1273;22617;-52
2022/03/12 03:59:47;;;;;;;8.20;5.80;;;22.90;40.90;;;;;;219512;1273;22681;-54
2022/03/12 04:04:58;;;;;;;8.50;5.80;;;22.80;41.30;;;;;;219878;1273;24330;-56
2022/03/12 04:10:15;;;;;;;8.30;5.50;;;22.80;41.20;;;;;;219441;1273;25472;-55
2022/03/12 04:15:29;;;;;;;8.80;5.50;;;22.60;41.30;;;;;;219559;1273;24224;-55
2022/03/12 04:20:34;;;;;;;8.50;5.30;;;22.60;41.70;;;;;;219475;1273;25449;-53
2022/03/12 04:25:39;;;;;;;8.70;5.40;;;22.70;41.80;;;;;;219620;1273;24109;-53
2022/03/12 04:31:01;;;;;;;8.00;5.10;;;23.10;41.00;;;;;;219538;1273;22532;-54
2022/03/12 04:36:20;;;;;;;8.90;4.90;;;23.60;39.70;;;;;;219564;1273;22955;-53
2022/03/12 04:41:36;;;;;;;8.90;5.40;;;23.80;39.40;;;;;;219673;1273;24275;-55
2022/03/12 04:46:40;;;;;;;9.70;5.30;;;24.00;39.10;;;;;;219173;1273;439243;-52
2022/03/12 04:51:43;;;;;;;9.70;5.30;;;24.10;38.70;;;;;;219442;1273;23068;-54
2022/03/12 04:56:49;;;;;;;9.50;5.90;;;24.30;38.50;;;;;;219510;1273;23003;-54
2022/03/12 05:01:59;;;;;;;8.60;5.60;;;24.30;38.20;;;;;;219508;1273;25615;-54
2022/03/12 05:07:13;;;;;;;8.90;5.50;;;24.30;38.20;;;;;;219511;1273;24279;-55
2022/03/12 05:12:18;;;;;;;10.20;5.90;;;24.30;38.20;;;;;;219755;1273;24244;-57
2022/03/12 05:17:24;;;;;;;11.60;6.00;;;24.50;38.10;;;;;;219522;1273;22821;-57
2022/03/12 05:22:27;;;;;;;10.30;5.70;;;24.50;38.60;;;;;;219490;1273;22563;-54
2022/03/12 05:27:32;;;;;;;9.70;5.60;;;24.40;38.50;;;;;;219649;1273;22541;-55
2022/03/12 05:32:36;;;;;;;15.00;6.90;;;24.60;39.00;;;;;;219660;1273;25418;-51
2022/03/12 05:37:41;;;;;;;11.10;6.40;;;24.60;38.80;;;;;;219552;1273;25418;-54
2022/03/12 05:42:49;;;;;;;9.40;5.70;;;24.70;39.10;;;;;;219708;1273;25360;-52
2022/03/12 05:47:53;;;;;;;9.00;6.30;;;24.60;39.00;;;;;;219740;1273;25451;-54
2022/03/12 05:52:58;;;;;;;12.50;6.00;;;24.40;39.20;;;;;;219994;1273;24272;-56
2022/03/12 05:58:04;;;;;;;12.40;6.10;;;24.10;39.90;;;;;;219844;1273;26705;-55
2022/03/12 06:03:13;;;;;;;15.00;8.40;;;23.90;40.00;;;;;;219575;1274;22755;-55
2022/03/12 06:08:22;;;;;;;12.60;7.20;;;23.70;39.70;;;;;;219479;1273;22595;-55
2022/03/12 06:13:29;;;;;;;15.00;7.50;;;23.50;39.30;;;;;;219426;1273;22532;-56
2022/03/12 06:18:37;;;;;;;12.00;6.70;;;23.40;40.20;;;;;;219361;1273;22606;-54
2022/03/12 06:23:41;;;;;;;12.40;7.90;;;23.20;40.30;;;;;;219531;1276;23051;-54
2022/03/12 06:28:45;;;;;;;13.20;7.70;;;23.20;40.30;;;;;;219385;1273;22591;-54
2022/03/12 06:33:50;;;;;;;14.10;7.80;;;23.00;40.60;;;;;;219410;1273;22529;-56
2022/03/12 06:38:55;;;;;;;13.80;7.50;;;22.90;40.80;;;;;;219640;1273;22548;-54
2022/03/12 06:43:59;;;;;;;16.90;8.00;;;22.80;41.00;;;;;;219515;1273;25287;-54
2022/03/12 06:49:07;;;;;;;14.70;8.30;;;22.60;41.00;;;;;;219638;1273;25458;-56
2022/03/12 06:54:11;;;;;;;10.70;6.60;;;22.70;41.50;;;;;;219449;1273;25337;-55
2022/03/12 06:59:15;;;;;;;11.00;6.80;;;22.60;41.40;;;;;;219722;1273;22521;-56
2022/03/12 07:04:25;;;;;;;13.80;6.60;;;22.60;41.00;;;;;;219590;1273;25325;-55
2022/03/12 07:09:30;;;;;;;14.80;7.10;;;22.60;41.10;;;;;;219484;1273;22531;-57
2022/03/12 07:14:36;;;;;;;15.30;7.50;;;22.90;40.70;;;;;;219536;1273;22685;-53
2022/03/12 07:19:40;;;;;;;14.70;6.80;;;23.10;40.30;;;;;;219640;1273;22567;-53
2022/03/12 07:24:44;;;;;;;13.20;6.50;;;23.30;39.70;;;;;;219570;1273;23487;-56
2022/03/12 07:29:50;;;;;;;14.90;7.30;;;23.50;39.50;;;;;;219515;1274;22553;-53
2022/03/12 07:34:57;;;;;;;11.90;7.20;;;23.60;39.50;;;;;;219675;1273;25380;-56
2022/03/12 07:40:12;;;;;;;14.20;6.80;;;23.80;39.50;;;;;;219679;1273;24306;-56
2022/03/12 07:45:20;;;;;;;13.70;6.90;;;23.90;40.30;;;;;;219732;1272;22739;-56
2022/03/12 07:50:27;;;;;;;13.40;7.00;;;24.10;40.70;;;;;;219624;1273;25678;-55
2022/03/12 07:55:43;;;;;;;14.50;7.00;;;24.10;40.90;;;;;;219700;1276;24314;-56
2022/03/12 08:00:47;;;;;;;15.70;7.90;;;24.20;40.70;;;;;;219591;1273;22537;-56
2022/03/12 08:05:51;;;;;;;10.80;6.60;;;24.20;40.60;;;;;;219783;1273;25451;-56
2022/03/12 08:16:17;;;;;;;10.60;6.70;;;24.30;40.30;;;;;;219673;1273;23048;-54
2022/03/12 08:21:33;;;;;;;11.70;7.10;;;24.40;40.10;;;;;;219474;1273;23338;-55
2022/03/12 08:26:41;;;;;;;12.10;7.30;;;24.40;40.10;;;;;;219665;1273;22787;-56
2022/03/12 08:31:46;;;;;;;13.80;7.70;;;24.30;40.50;;;;;;219634;1275;26498;-56
2022/03/12 08:36:54;;;;;;;12.20;7.10;;;24.10;40.90;;;;;;219467;1273;22549;-56
2022/03/12 08:41:58;;;;;;;11.70;6.60;;;24.00;40.80;;;;;;219280;1273;22563;-54
2022/03/12 08:47:10;;;;;;;11.40;6.80;;;23.90;40.90;;;;;;219153;1273;22581;-56
2022/03/12 08:52:15;;;;;;;13.20;7.60;;;23.80;41.10;;;;;;219390;1274;25457;-55
2022/03/12 08:57:19;;;;;;;12.20;7.90;;;23.70;41.40;;;;;;219456;1273;25593;-55
2022/03/12 09:02:28;;;;;;;12.30;6.40;;;23.70;41.60;;;;;;227376;1273;22472;-59
2022/03/12 09:07:36;;;;;;;12.00;6.60;;;23.60;41.30;;;;;;227258;1274;22446;-60
2022/03/12 09:12:44;;;;;;;10.80;6.70;;;23.60;41.40;;;;;;227098;1274;22448;-60
2022/03/12 09:17:52;;;;;;;11.90;6.90;;;23.60;41.50;;;;;;226763;1273;22557;-59
2022/03/12 09:23:05;;;;;;;11.70;6.30;;;23.60;41.40;;;;;;227018;1275;23246;-58
2022/03/12 09:28:20;;;;;;;9.40;6.00;;;23.60;41.50;;;;;;227366;1273;22922;-59
2022/03/12 09:33:36;;;;;;;14.20;7.00;;;23.60;41.30;;;;;;219777;1273;22610;-59
2022/03/12 09:38:39;;;;;;;13.60;7.10;;;23.50;41.40;;;;;;219168;1274;22575;-59
2022/03/12 09:43:56;;;;;;;10.20;6.60;;;23.40;41.50;;;;;;219254;1275;22534;-60
2022/03/12 09:49:24;;;;;;;11.00;6.80;;;23.50;41.80;;;;;;219390;1274;24433;-61
2022/03/12 09:54:42;;;;;;;10.10;6.30;;;23.40;41.90;;;;;;219458;1275;22793;-60
2022/03/12 09:59:47;;;;;;;9.70;6.10;;;23.40;42.70;;;;;;219572;1277;25326;-59
2022/03/12 10:04:51;;;;;;;14.40;7.30;;;23.40;42.30;;;;;;219417;1273;26741;-58
2022/03/12 10:09:55;;;;;;;10.90;6.00;;;23.30;42.40;;;;;;219356;1273;24307;-61
2022/03/12 10:15:07;;;;;;;19.80;6.40;;;23.30;42.30;;;;;;219445;1273;22756;-59
2022/03/12 10:20:13;;;;;;;10.80;5.80;;;23.30;42.70;;;;;;219422;1274;23045;-60
2022/03/12 10:25:17;;;;;;;11.10;6.00;;;23.30;42.30;;;;;;219581;1274;26514;-58
2022/03/12 10:30:25;;;;;;;11.70;5.90;;;23.40;42.20;;;;;;219605;1274;24994;-59
2022/03/12 10:35:40;;;;;;;13.50;6.60;;;23.30;42.50;;;;;;219506;1274;22564;-60
2022/03/12 10:40:47;;;;;;;10.30;6.10;;;23.30;42.40;;;;;;219676;1277;22566;-59
2022/03/12 10:45:58;;;;;;;9.20;5.90;;;23.40;42.40;;;;;;219754;1275;24400;-57
2022/03/12 10:51:14;;;;;;;9.20;5.80;;;23.40;42.00;;;;;;219787;1274;24094;-59
2022/03/12 10:56:19;;;;;;;12.30;7.20;;;23.40;42.10;;;;;;219587;1274;22560;-59
2022/03/12 11:01:23;;;;;;;8.90;5.70;;;23.40;42.10;;;;;;219506;1274;25530;-61
2022/03/12 11:06:32;;;;;;;11.00;6.20;;;23.40;42.20;;;;;;219590;1274;22534;-59
2022/03/12 11:11:47;;;;;;;11.50;6.10;;;23.50;42.20;;;;;;219608;1274;24837;-60
2022/03/12 11:16:56;;;;;;;11.40;6.40;;;23.50;42.10;;;;;;219621;1274;25429;-63
2022/03/12 11:22:12;;;;;;;9.90;4.90;;;23.50;42.40;;;;;;219608;1273;22574;-61
2022/03/12 11:27:31;;;;;;;12.70;6.30;;;23.50;42.10;;;;;;219718;1274;22663;-60
2022/03/12 11:32:42;;;;;;;10.40;5.40;;;23.50;42.10;;;;;;219767;1274;24267;-59
2022/03/12 11:37:48;;;;;;;11.50;6.00;;;23.50;42.40;;;;;;219442;1274;22965;-59
2022/03/12 11:42:53;;;;;;;9.20;5.40;;;23.60;42.30;;;;;;219739;1274;24234;-61
2022/03/12 11:47:58;;;;;;;10.90;5.90;;;23.60;42.10;;;;;;219717;1274;22773;-58
2022/03/12 11:53:04;;;;;;;10.70;6.00;;;23.50;42.50;;;;;;219661;1274;24389;-62
2022/03/12 11:58:09;;;;;;;9.80;5.10;;;23.60;42.20;;;;;;219566;1274;25318;-62
2022/03/12 12:03:16;;;;;;;11.10;5.80;;;23.50;41.60;;;;;;219556;1275;25835;-58
2022/03/12 12:08:27;;;;;;;12.60;5.60;;;23.50;42.30;;;;;;219401;1273;22567;-57
2022/03/12 12:13:31;;;;;;;10.40;6.00;;;23.50;42.10;;;;;;219618;1273;25675;-59
2022/03/12 12:18:35;;;;;;;12.70;7.50;;;23.50;42.20;;;;;;219964;1273;25484;-57
2022/03/12 12:23:38;;;;;;;16.70;7.80;;;23.30;35.00;;;;;;219510;1274;24407;-56
2022/03/12 12:28:51;;;;;;;17.80;8.70;;;23.20;33.50;;;;;;219651;1275;25826;-58
2022/03/12 12:33:56;;;;;;;15.00;9.00;;;22.80;30.80;;;;;;219583;1274;22533;-59
2022/03/12 12:39:10;;;;;;;15.30;9.20;;;22.60;29.20;;;;;;219672;1274;22581;-57
2022/03/12 12:44:14;;;;;;;13.70;8.70;;;22.90;28.80;;;;;;219721;1273;22553;-57
2022/03/12 12:49:31;;;;;;;14.40;7.90;;;23.30;29.10;;;;;;219714;1273;22804;-57
2022/03/12 12:54:43;;;;;;;14.40;7.70;;;23.60;28.60;;;;;;219794;1273;24232;-58
2022/03/12 12:59:48;;;;;;;12.20;8.60;;;23.80;28.50;;;;;;219804;1273;24275;-61
2022/03/12 13:05:14;;;;;;;17.00;9.50;;;23.60;27.30;;;;;;219832;1273;23945;-57
2022/03/12 13:10:26;;;;;;;11.60;7.70;;;23.70;27.00;;;;;;219827;1273;24010;-57
2022/03/12 13:15:50;;;;;;;12.20;7.30;;;23.70;26.30;;;;;;220169;1273;22574;-56
2022/03/12 13:21:28;;;;;;;11.20;7.00;;;23.60;25.90;;;;;;220236;1273;25387;-59
2022/03/12 13:26:50;;;;;;;9.40;7.40;;;23.30;25.60;;;;;;220244;1273;24260;-58
2022/03/12 13:31:56;;;;;;;10.40;6.50;;;23.30;24.70;;;;;;220421;1273;25382;-62
2022/03/12 13:37:11;;;;;;;;;;;23.00;24.30;;;;;;219951;1273;24371;-58
2022/03/12 13:42:21;;;;;;;9.70;6.50;;;23.40;25.90;;;;;;220042;1273;24370;-57
2022/03/12 13:47:25;;;;;;;11.90;7.20;;;23.80;26.70;;;;;;220242;1273;25461;-58
2022/03/12 13:52:31;;;;;;;21.40;9.80;;;24.00;27.50;;;;;;220403;1274;22606;-59
2022/03/12 13:57:38;;;;;;;23.90;10.60;;;24.10;28.60;;;;;;220044;1275;23971;-57
2022/03/12 14:02:56;;;;;;;18.10;8.80;;;24.20;29.10;;;;;;220132;1273;24245;-58
2022/03/12 14:08:15;;;;;;;15.60;8.40;;;24.30;29.60;;;;;;220007;1275;22541;-57
2022/03/12 14:13:22;;;;;;;19.50;8.10;;;24.30;29.70;;;;;;220117;1275;22576;-58
2022/03/12 14:18:27;;;;;;;15.70;8.10;;;24.40;29.40;;;;;;220079;1275;24237;-58
2022/03/12 14:23:32;;;;;;;18.80;7.50;;;24.40;29.50;;;;;;220183;1275;25519;-58
2022/03/12 14:28:36;;;;;;;12.80;6.70;;;24.30;29.40;;;;;;220366;1273;22819;-59
2022/03/12 14:33:44;;;;;;;14.20;7.10;;;24.30;28.90;;;;;;220188;1274;22622;-56
2022/03/12 14:38:55;;;;;;;13.70;8.20;;;24.20;29.70;;;;;;220451;1273;25522;-58
2022/03/12 14:44:10;;;;;;;12.60;7.10;;;24.10;30.00;;;;;;221417;1273;25412;-57
2022/03/12 14:49:37;;;;;;;14.80;7.80;;;23.90;30.00;;;;;;223268;1273;25533;-57
2022/03/12 14:54:42;;;;;;;15.90;7.50;;;23.80;30.00;;;;;;221787;1273;22596;-62
2022/03/12 14:59:47;;;;;;;14.60;7.00;;;23.60;30.10;;;;;;220371;1274;22694;-59
2022/03/12 15:04:51;;;;;;;14.70;6.70;;;23.50;30.00;;;;;;220203;1274;22586;-59
2022/03/12 15:10:00;;;;;;;12.20;6.40;;;23.50;29.20;;;;;;220223;1273;24828;-59
2022/03/12 15:15:18;;;;;;;15.60;7.60;;;23.30;29.10;;;;;;220305;1273;22549;-58
2022/03/12 15:20:24;;;;;;;17.10;6.90;;;23.20;29.20;;;;;;220259;1273;22711;-58
2022/03/12 15:25:35;;;;;;;12.50;7.10;;;23.20;28.30;;;;;;219787;1274;22839;-59
2022/03/12 15:30:55;;;;;;;10.00;5.70;;;23.00;28.20;;;;;;220180;1273;26511;-59
2022/03/12 15:36:25;;;;;;;14.50;6.40;;;22.90;27.70;;;;;;219994;1274;22984;-58
2022/03/12 15:41:30;;;;;;;8.10;5.00;;;22.90;27.80;;;;;;219962;1274;25339;-59
2022/03/12 15:46:35;;;;;;;12.40;5.30;;;23.10;28.40;;;;;;220261;1274;23250;-57
2022/03/12 15:51:39;;;;;;;7.80;5.10;;;23.30;28.10;;;;;;220157;1274;25862;-58
2022/03/12 15:56:43;;;;;;;18.10;7.70;;;23.50;28.20;;;;;;222202;1273;22541;-59
2022/03/12 16:01:47;;;;;;;16.20;7.20;;;23.60;28.40;;;;;;223976;1273;22711;-61
2022/03/12 16:06:53;;;;;;;23.60;6.80;;;23.80;28.80;;;;;;222538;1273;22790;-57
2022/03/12 16:11:58;;;;;;;14.40;5.70;;;23.70;29.10;;;;;;224311;1273;22549;-60
2022/03/12 16:17:10;;;;;;;11.90;5.90;;;23.70;29.90;;;;;;225864;1275;22564;-57
2022/03/12 16:22:20;;;;;;;12.10;6.10;;;23.80;31.10;;;;;;226367;1273;22986;-57
2022/03/12 16:27:27;;;;;;;9.30;4.80;;;23.80;32.50;;;;;;226429;1273;23008;-58
2022/03/12 16:32:32;;;;;;;8.50;5.00;;;23.80;33.30;;;;;;225846;1273;22616;-57
2022/03/12 16:37:36;;;;;;;10.30;5.40;;;23.90;33.90;;;;;;226314;1274;23185;-62
2022/03/12 16:42:42;;;;;;;20.30;6.50;;;23.90;34.10;;;;;;226791;1273;25377;-59
2022/03/12 16:47:57;;;;;;;25.50;6.60;;;23.90;35.70;;;;;;219850;1273;4630667;-57
2022/03/12 16:53:12;;;;;;;15.00;5.50;;;23.90;34.90;;;;;;220384;1273;22669;-55
2022/03/12 16:58:22;;;;;;;21.50;6.10;;;24.00;36.70;;;;;;220542;1273;22590;-58
2022/03/12 17:03:31;;;;;;;16.50;5.60;;;24.00;37.30;;;;;;220561;1273;22621;-56
2022/03/12 17:08:41;;;;;;;16.40;6.10;;;24.00;38.20;;;;;;220611;1273;25255;-53
2022/03/12 17:13:46;;;;;;;16.10;5.30;;;23.80;38.50;;;;;;219892;1274;24340;-55
2022/03/12 17:18:50;;;;;;;18.10;6.30;;;23.70;38.60;;;;;;220525;1273;24230;-55
2022/03/12 17:23:56;;;;;;;13.40;6.20;;;23.60;41.00;;;;;;220219;1273;24188;-53
2022/03/12 17:29:14;;;;;;;16.90;7.00;;;23.50;40.40;;;;;;219967;1273;22551;-53
2022/03/12 17:34:18;;;;;;;30.70;12.70;;;23.40;40.30;;;;;;220262;1273;26158;-55
2022/03/12 17:39:37;;;;;;;41.50;13.10;;;23.30;41.20;;;;;;220522;1273;22628;-55
2022/03/12 17:44:52;;;;;;;42.00;11.50;;;23.20;40.80;;;;;;220554;1273;22560;-52
2022/03/12 17:50:04;;;;;;;36.50;12.00;;;23.20;41.20;;;;;;220332;1273;25299;-53
2022/03/12 17:55:34;;;;;;;33.10;10.80;;;23.40;40.80;;;;;;220151;1273;22854;-56
2022/03/12 18:00:52;;;;;;;26.70;9.50;;;23.40;40.20;;;;;;220125;1273;23935;-52
2022/03/12 18:06:10;;;;;;;22.30;9.10;;;23.40;40.30;;;;;;220157;1273;26597;-54
2022/03/12 18:11:34;;;;;;;28.50;10.20;;;23.30;39.80;;;;;;220284;1273;22559;-55
2022/03/12 18:16:56;;;;;;;27.20;10.00;;;23.20;39.60;;;;;;220052;1273;25590;-55
2022/03/12 18:22:14;;;;;;;28.30;10.80;;;23.10;39.40;;;;;;219531;1273;24247;-56
2022/03/12 18:27:29;;;;;;;32.00;9.90;;;23.00;39.90;;;;;;219595;1273;22638;-53
2022/03/12 18:32:41;;;;;;;26.50;9.60;;;23.00;39.90;;;;;;219720;1273;24028;-56
2022/03/12 18:37:58;;;;;;;25.00;9.80;;;22.90;39.90;;;;;;219791;1273;25492;-55
2022/03/12 18:43:17;;;;;;;23.10;9.20;;;22.90;40.10;;;;;;219705;1273;25272;-53
2022/03/12 18:48:26;;;;;;;16.50;8.60;;;22.80;40.30;;;;;;219760;1272;25606;-55
2022/03/12 18:53:38;;;;;;;24.30;9.00;;;22.80;40.30;;;;;;219702;1273;25335;-55
2022/03/12 18:58:48;;;;;;;21.50;9.30;;;22.70;40.30;;;;;;219475;1274;22710;-55
2022/03/12 19:04:00;;;;;;;15.60;7.60;;;22.70;41.30;;;;;;219657;1273;22550;-53
2022/03/12 19:09:08;;;;;;;21.50;9.10;;;22.70;41.50;;;;;;219330;1275;24435;-54
2022/03/12 19:14:22;;;;;;;22.60;9.30;;;22.60;41.30;;;;;;219832;1273;22557;-54
2022/03/12 19:19:31;;;;;;;17.80;8.60;;;22.50;41.80;;;;;;219549;1274;25275;-57
2022/03/12 19:24:38;;;;;;;18.30;8.60;;;22.50;42.70;;;;;;219703;1273;22574;-56
2022/03/12 19:29:47;;;;;;;17.20;7.90;;;22.50;42.80;;;;;;219568;1273;25538;-54
2022/03/12 19:34:54;;;;;;;15.70;7.10;;;22.40;42.90;;;;;;219558;1274;25268;-55
2022/03/12 19:40:20;;;;;;;17.40;7.70;;;22.40;42.90;;;;;;219498;1273;24354;-56
2022/03/12 19:45:44;;;;;;;16.50;7.50;;;22.30;43.00;;;;;;219588;1273;25413;-57
2022/03/12 19:50:55;;;;;;;23.10;7.80;;;22.20;43.10;;;;;;219657;1273;22611;-55
2022/03/12 19:55:59;;;;;;;18.00;7.10;;;22.20;43.20;;;;;;219624;1273;24336;-55
2022/03/12 20:01:17;;;;;;;18.60;6.80;;;22.20;43.00;;;;;;219514;1273;24400;-56
2022/03/12 20:06:25;;;;;;;17.40;8.10;;;22.20;42.90;;;;;;219647;1273;25274;-56
2022/03/12 20:11:28;;;;;;;15.40;6.50;;;22.20;43.00;;;;;;219514;1273;25414;-56
2022/03/12 20:16:35;;;;;;;16.70;8.10;;;22.20;43.30;;;;;;219532;1273;22775;-54
2022/03/12 20:21:40;;;;;;;17.40;8.80;;;22.40;42.50;;;;;;219650;1273;25293;-59
2022/03/12 20:26:48;;;;;;;19.90;7.70;;;22.70;42.00;;;;;;219690;1273;24237;-58
2022/03/12 20:31:57;;;;;;;19.90;7.80;;;23.00;41.40;;;;;;219429;1273;22560;-54
2022/03/12 20:37:01;;;;;;;14.70;6.90;;;23.20;41.10;;;;;;219418;1274;22566;-59
2022/03/12 20:42:07;;;;;;;21.80;7.40;;;23.30;40.80;;;;;;219754;1273;24631;-53
2022/03/12 20:47:13;;;;;;;15.00;7.20;;;23.40;40.50;;;;;;219493;1273;22562;-57
2022/03/12 20:52:16;;;;;;;20.90;8.40;;;23.40;40.40;;;;;;219622;1273;22578;-55
2022/03/12 20:57:20;;;;;;;16.70;8.40;;;23.50;40.30;;;;;;219523;1273;25506;-55
2022/03/12 21:02:28;;;;;;;16.20;7.40;;;23.50;40.50;;;;;;219784;1273;22996;-56
2022/03/12 21:07:37;;;;;;;24.50;8.80;;;23.60;40.10;;;;;;219578;1273;23211;-58
2022/03/12 21:12:51;;;;;;;19.50;8.10;;;23.60;39.90;;;;;;220113;1273;22603;-56
2022/03/12 21:18:06;;;;;;;14.90;7.50;;;23.70;39.80;;;;;;219948;1273;25599;-59
2022/03/12 21:23:09;;;;;;;13.90;7.70;;;23.70;39.60;;;;;;220153;1273;22574;-53
2022/03/12 21:28:14;;;;;;;16.20;7.50;;;23.70;39.60;;;;;;220300;1273;22543;-58
2022/03/12 21:33:19;;;;;;;25.60;9.10;;;23.70;39.50;;;;;;220144;1272;25384;-57
2022/03/12 21:38:25;;;;;;;23.00;8.00;;;23.80;40.10;;;;;;219988;1273;23957;-56
2022/03/12 21:43:38;;;;;;;13.50;7.60;;;23.80;39.60;;;;;;220288;1273;22788;-55
2022/03/12 21:48:46;;;;;;;12.50;7.10;;;23.80;39.30;;;;;;219800;1273;22580;-57
2022/03/12 21:53:55;;;;;;;14.90;6.70;;;23.80;39.40;;;;;;219889;1273;22541;-57
2022/03/12 21:59:19;;;;;;;16.50;7.10;;;23.90;39.10;;;;;;219623;1273;22695;-57
2022/03/12 22:04:37;;;;;;;18.00;7.00;;;23.90;39.30;;;;;;219886;1273;26588;-58
2022/03/12 22:10:11;;;;;;;15.70;6.60;;;23.90;39.30;;;;;;219889;1273;22541;-57
2022/03/12 22:15:40;;;;;;;15.80;7.30;;;23.90;39.60;;;;;;219643;1273;25490;-58
2022/03/12 22:20:59;;;;;;;13.00;7.30;;;23.90;39.50;;;;;;219859;1273;25624;-57
2022/03/12 22:26:18;;;;;;;13.50;6.90;;;24.00;39.50;;;;;;219898;1273;22533;-57
2022/03/12 22:31:27;;;;;;;14.10;7.10;;;24.00;39.30;;;;;;220065;1273;24271;-55
2022/03/12 22:36:41;;;;;;;14.10;7.00;;;24.10;39.30;;;;;;219976;1273;22745;-57
2022/03/12 22:41:46;;;;;;;18.00;8.00;;;24.10;39.60;;;;;;219939;1273;22538;-55
2022/03/12 22:46:58;;;;;;;14.70;7.10;;;24.10;39.30;;;;;;219988;1273;22580;-57
2022/03/12 22:52:32;;;;;;;12.80;7.10;;;24.10;39.20;;;;;;219929;1273;22705;-55
2022/03/12 22:57:38;;;;;;;15.80;7.50;;;24.10;39.10;;;;;;219953;1273;22558;-57
2022/03/12 23:02:50;;;;;;;17.60;7.70;;;24.00;39.20;;;;;;219798;1273;25525;-55
2022/03/12 23:13:18;;;;;;;15.00;6.90;;;23.80;39.40;;;;;;219927;1273;24271;-57
2022/03/12 23:18:26;;;;;;;12.50;7.30;;;23.70;39.60;;;;;;219991;1273;25527;-56
2022/03/12 23:23:30;;;;;;;11.30;6.60;;;23.60;39.70;;;;;;219948;1273;22535;-54
2022/03/12 23:28:40;;;;;;;12.50;6.70;;;23.60;39.80;;;;;;219779;1273;25450;-57
2022/03/12 23:33:56;;;;;;;11.70;6.90;;;23.40;39.80;;;;;;219527;1273;24283;-55
2022/03/12 23:39:01;;;;;;;12.10;6.90;;;23.30;40.00;;;;;;219399;1273;24296;-57
2022/03/12 23:44:14;;;;;;;10.60;5.90;;;23.20;40.20;;;;;;219488;1273;25255;-57
2022/03/12 23:49:19;;;;;;;10.30;6.40;;;23.20;40.20;;;;;;219452;1275;22633;-56
2022/03/12 23:54:22;;;;;;;17.00;7.30;;;23.10;40.30;;;;;;219595;1273;22564;-59
2022/03/12 23:59:45;;;;;;;13.50;7.40;;;23.00;40.30;;;;;;219463;1273;24333;-56
